sensor_id;sensor_type;location;lat;lon;timestamp;P1;durP1;ratioP1;P2;durP2;ratioP2
55497;SDS011;41357;52.806;18.268;2023-02-18T00:00:54;2.92;;;1.27;;
55497;SDS011;41357;52.806;18.268;2023-02-18T00:03:22;8.57;;;1.95;;
55497;SDS011;41357;52.806;18.268;2023-02-18T00:05:48;2.50;;;1.15;;
55497;SDS011;41357;52.806;18.268;2023-02-18T00:08:14;11.45;;;1.40;;
55497;SDS011;41357;52.806;18.268;2023-02-18T00:10:40;2.95;;;0.80;;
55497;SDS011;41357;52.806;18.268;2023-02-18T00:13:06;5.35;;;1.33;;
55497;SDS011;41357;52.806;18.268;2023-02-18T00:15:36;6.20;;;1.38;;
55497;SDS011;41357;52.806;18.268;2023-02-18T00:18:02;8.60;;;1.30;;
55497;SDS011;41357;52.806;18.268;2023-02-18T00:20:28;4.85;;;0.90;;
55497;SDS011;41357;52.806;18.268;2023-02-18T00:22:54;6.97;;;1.58;;
55497;SDS011;41357;52.806;18.268;2023-02-18T00:25:20;8.27;;;1.55;;
55497;SDS011;41357;52.806;18.268;2023-02-18T00:27:46;9.82;;;1.85;;
55497;SDS011;41357;52.806;18.268;2023-02-18T00:30:13;1.85;;;0.32;;
55497;SDS011;41357;52.806;18.268;2023-02-18T00:32:39;4.85;;;1.25;;
55497;SDS011;41357;52.806;18.268;2023-02-18T00:35:05;8.98;;;1.67;;
55497;SDS011;41357;52.806;18.268;2023-02-18T00:37:31;3.47;;;0.77;;
55497;SDS011;41357;52.806;18.268;2023-02-18T00:39:57;8.45;;;1.25;;
55497;SDS011;41357;52.806;18.268;2023-02-18T00:42:23;11.43;;;2.55;;
55497;SDS011;41357;52.806;18.268;2023-02-18T00:44:49;9.68;;;1.05;;
55497;SDS011;41357;52.806;18.268;2023-02-18T00:47:15;5.93;;;1.65;;
55497;SDS011;41357;52.806;18.268;2023-02-18T00:49:41;9.75;;;1.27;;
55497;SDS011;41357;52.806;18.268;2023-02-18T00:52:08;8.15;;;1.40;;
55497;SDS011;41357;52.806;18.268;2023-02-18T00:54:34;7.07;;;1.20;;
55497;SDS011;41357;52.806;18.268;2023-02-18T00:57:00;14.18;;;2.05;;
55497;SDS011;41357;52.806;18.268;2023-02-18T00:59:26;6.80;;;1.60;;
55497;SDS011;41357;52.806;18.268;2023-02-18T01:01:52;6.95;;;2.10;;
55497;SDS011;41357;52.806;18.268;2023-02-18T01:04:18;3.13;;;0.88;;
55497;SDS011;41357;52.806;18.268;2023-02-18T01:06:44;6.97;;;1.17;;
55497;SDS011;41357;52.806;18.268;2023-02-18T01:09:10;12.45;;;1.20;;
55497;SDS011;41357;52.806;18.268;2023-02-18T01:11:36;5.78;;;1.10;;
55497;SDS011;41357;52.806;18.268;2023-02-18T01:14:02;14.45;;;1.67;;
55497;SDS011;41357;52.806;18.268;2023-02-18T01:16:28;11.10;;;2.13;;
55497;SDS011;41357;52.806;18.268;2023-02-18T01:18:54;12.68;;;2.13;;
55497;SDS011;41357;52.806;18.268;2023-02-18T01:21:21;4.45;;;1.20;;
55497;SDS011;41357;52.806;18.268;2023-02-18T01:23:47;1.58;;;0.60;;
55497;SDS011;41357;52.806;18.268;2023-02-18T01:26:13;5.10;;;0.90;;
55497;SDS011;41357;52.806;18.268;2023-02-18T01:28:39;9.00;;;1.48;;
55497;SDS011;41357;52.806;18.268;2023-02-18T01:31:06;12.27;;;1.25;;
55497;SDS011;41357;52.806;18.268;2023-02-18T01:33:32;8.80;;;1.20;;
55497;SDS011;41357;52.806;18.268;2023-02-18T01:35:58;9.20;;;1.48;;
55497;SDS011;41357;52.806;18.268;2023-02-18T01:38:25;13.07;;;2.75;;
55497;SDS011;41357;52.806;18.268;2023-02-18T01:40:51;12.68;;;1.50;;
55497;SDS011;41357;52.806;18.268;2023-02-18T01:43:17;4.70;;;1.02;;
55497;SDS011;41357;52.806;18.268;2023-02-18T01:51:03;7.40;;;1.48;;
55497;SDS011;41357;52.806;18.268;2023-02-18T01:53:33;7.20;;;1.70;;
55497;SDS011;41357;52.806;18.268;2023-02-18T01:56:01;5.30;;;2.47;;
55497;SDS011;41357;52.806;18.268;2023-02-18T01:58:28;7.55;;;1.38;;
55497;SDS011;41357;52.806;18.268;2023-02-18T02:00:54;6.50;;;1.38;;
55497;SDS011;41357;52.806;18.268;2023-02-18T02:03:21;4.45;;;0.82;;
55497;SDS011;41357;52.806;18.268;2023-02-18T02:05:47;5.15;;;1.17;;
55497;SDS011;41357;52.806;18.268;2023-02-18T02:08:13;9.20;;;1.30;;
55497;SDS011;41357;52.806;18.268;2023-02-18T02:10:51;5.90;;;1.15;;
55497;SDS011;41357;52.806;18.268;2023-02-18T02:13:44;9.48;;;1.42;;
55497;SDS011;41357;52.806;18.268;2023-02-18T02:51:04;9.00;;;1.00;;
55497;SDS011;41357;52.806;18.268;2023-02-18T02:53:29;3.63;;;0.80;;
55497;SDS011;41357;52.806;18.268;2023-02-18T02:55:55;10.35;;;1.52;;
55497;SDS011;41357;52.806;18.268;2023-02-18T02:58:22;5.72;;;1.20;;
55497;SDS011;41357;52.806;18.268;2023-02-18T03:00:55;5.18;;;1.08;;
55497;SDS011;41357;52.806;18.268;2023-02-18T03:08:54;11.60;;;1.70;;
55497;SDS011;41357;52.806;18.268;2023-02-18T03:11:23;7.38;;;1.42;;
55497;SDS011;41357;52.806;18.268;2023-02-18T03:21:34;13.98;;;1.00;;
55497;SDS011;41357;52.806;18.268;2023-02-18T03:26:29;3.65;;;0.70;;
55497;SDS011;41357;52.806;18.268;2023-02-18T03:28:57;5.97;;;0.75;;
55497;SDS011;41357;52.806;18.268;2023-02-18T03:31:25;5.75;;;1.40;;
55497;SDS011;41357;52.806;18.268;2023-02-18T03:33:58;3.30;;;0.98;;
55497;SDS011;41357;52.806;18.268;2023-02-18T03:36:26;3.30;;;0.95;;
55497;SDS011;41357;52.806;18.268;2023-02-18T03:38:58;7.28;;;1.98;;
55497;SDS011;41357;52.806;18.268;2023-02-18T03:41:25;5.63;;;1.67;;
55497;SDS011;41357;52.806;18.268;2023-02-18T03:43:52;6.20;;;0.88;;
55497;SDS011;41357;52.806;18.268;2023-02-18T03:46:19;3.00;;;0.68;;
55497;SDS011;41357;52.806;18.268;2023-02-18T03:48:45;6.93;;;1.33;;
55497;SDS011;41357;52.806;18.268;2023-02-18T03:51:11;6.65;;;1.08;;
55497;SDS011;41357;52.806;18.268;2023-02-18T03:53:37;4.90;;;0.90;;
55497;SDS011;41357;52.806;18.268;2023-02-18T03:56:04;5.80;;;0.98;;
55497;SDS011;41357;52.806;18.268;2023-02-18T03:58:30;4.88;;;1.50;;
55497;SDS011;41357;52.806;18.268;2023-02-18T04:00:56;5.40;;;0.70;;
55497;SDS011;41357;52.806;18.268;2023-02-18T04:03:22;5.65;;;1.35;;
55497;SDS011;41357;52.806;18.268;2023-02-18T04:05:48;8.70;;;2.17;;
55497;SDS011;41357;52.806;18.268;2023-02-18T04:08:14;7.28;;;0.77;;
55497;SDS011;41357;52.806;18.268;2023-02-18T04:10:40;7.07;;;1.58;;
55497;SDS011;41357;52.806;18.268;2023-02-18T04:13:06;10.70;;;1.17;;
55497;SDS011;41357;52.806;18.268;2023-02-18T04:15:32;3.33;;;0.80;;
55497;SDS011;41357;52.806;18.268;2023-02-18T04:17:59;2.53;;;0.75;;
55497;SDS011;41357;52.806;18.268;2023-02-18T04:20:25;6.05;;;1.15;;
55497;SDS011;41357;52.806;18.268;2023-02-18T04:22:51;8.02;;;1.10;;
55497;SDS011;41357;52.806;18.268;2023-02-18T04:25:17;9.20;;;1.20;;
55497;SDS011;41357;52.806;18.268;2023-02-18T04:27:43;3.47;;;1.05;;
55497;SDS011;41357;52.806;18.268;2023-02-18T04:30:09;5.05;;;1.08;;
55497;SDS011;41357;52.806;18.268;2023-02-18T04:32:36;9.50;;;1.58;;
55497;SDS011;41357;52.806;18.268;2023-02-18T04:35:02;9.48;;;1.42;;
55497;SDS011;41357;52.806;18.268;2023-02-18T04:37:28;7.03;;;1.50;;
55497;SDS011;41357;52.806;18.268;2023-02-18T04:39:54;4.63;;;1.00;;
55497;SDS011;41357;52.806;18.268;2023-02-18T04:42:20;3.78;;;0.77;;
55497;SDS011;41357;52.806;18.268;2023-02-18T04:44:46;14.02;;;1.55;;
55497;SDS011;41357;52.806;18.268;2023-02-18T04:47:13;7.10;;;0.52;;
55497;SDS011;41357;52.806;18.268;2023-02-18T04:49:39;5.32;;;0.85;;
55497;SDS011;41357;52.806;18.268;2023-02-18T04:52:05;5.75;;;1.40;;
55497;SDS011;41357;52.806;18.268;2023-02-18T04:54:31;7.78;;;0.98;;
55497;SDS011;41357;52.806;18.268;2023-02-18T04:56:57;9.60;;;0.77;;
55497;SDS011;41357;52.806;18.268;2023-02-18T04:59:23;9.38;;;0.93;;
55497;SDS011;41357;52.806;18.268;2023-02-18T05:01:49;4.07;;;1.17;;
55497;SDS011;41357;52.806;18.268;2023-02-18T05:04:16;18.67;;;1.98;;
55497;SDS011;41357;52.806;18.268;2023-02-18T05:06:42;5.30;;;1.42;;
55497;SDS011;41357;52.806;18.268;2023-02-18T05:09:09;7.25;;;1.20;;
55497;SDS011;41357;52.806;18.268;2023-02-18T05:11:35;6.82;;;0.93;;
55497;SDS011;41357;52.806;18.268;2023-02-18T05:14:01;6.53;;;2.17;;
55497;SDS011;41357;52.806;18.268;2023-02-18T05:16:27;11.60;;;1.25;;
55497;SDS011;41357;52.806;18.268;2023-02-18T05:18:53;5.97;;;1.65;;
55497;SDS011;41357;52.806;18.268;2023-02-18T05:21:19;5.07;;;1.50;;
55497;SDS011;41357;52.806;18.268;2023-02-18T05:23:46;8.38;;;0.90;;
55497;SDS011;41357;52.806;18.268;2023-02-18T05:26:12;4.13;;;1.02;;
55497;SDS011;41357;52.806;18.268;2023-02-18T05:28:38;4.38;;;1.00;;
55497;SDS011;41357;52.806;18.268;2023-02-18T05:31:04;10.27;;;1.48;;
55497;SDS011;41357;52.806;18.268;2023-02-18T05:33:30;10.15;;;1.70;;
55497;SDS011;41357;52.806;18.268;2023-02-18T05:35:56;8.73;;;1.70;;
55497;SDS011;41357;52.806;18.268;2023-02-18T05:38:22;10.00;;;1.60;;
55497;SDS011;41357;52.806;18.268;2023-02-18T05:40:49;8.00;;;1.17;;
55497;SDS011;41357;52.806;18.268;2023-02-18T05:43:15;9.57;;;1.80;;
55497;SDS011;41357;52.806;18.268;2023-02-18T05:45:41;3.05;;;1.23;;
55497;SDS011;41357;52.806;18.268;2023-02-18T05:48:07;9.05;;;1.90;;
55497;SDS011;41357;52.806;18.268;2023-02-18T05:50:34;6.38;;;2.08;;
55497;SDS011;41357;52.806;18.268;2023-02-18T05:53:00;7.35;;;0.80;;
55497;SDS011;41357;52.806;18.268;2023-02-18T05:55:26;4.85;;;1.38;;
55497;SDS011;41357;52.806;18.268;2023-02-18T05:57:52;12.20;;;0.90;;
55497;SDS011;41357;52.806;18.268;2023-02-18T06:00:18;4.20;;;1.15;;
55497;SDS011;41357;52.806;18.268;2023-02-18T06:02:44;3.53;;;0.93;;
55497;SDS011;41357;52.806;18.268;2023-02-18T06:05:10;4.93;;;1.02;;
55497;SDS011;41357;52.806;18.268;2023-02-18T06:07:36;8.32;;;1.60;;
55497;SDS011;41357;52.806;18.268;2023-02-18T06:10:04;5.70;;;1.05;;
55497;SDS011;41357;52.806;18.268;2023-02-18T06:12:30;9.40;;;1.80;;
55497;SDS011;41357;52.806;18.268;2023-02-18T06:14:56;6.43;;;1.58;;
55497;SDS011;41357;52.806;18.268;2023-02-18T06:17:22;7.60;;;1.67;;
55497;SDS011;41357;52.806;18.268;2023-02-18T06:19:48;7.20;;;1.02;;
55497;SDS011;41357;52.806;18.268;2023-02-18T06:22:15;7.85;;;1.40;;
55497;SDS011;41357;52.806;18.268;2023-02-18T06:24:41;10.98;;;1.80;;
55497;SDS011;41357;52.806;18.268;2023-02-18T06:27:07;7.82;;;1.63;;
55497;SDS011;41357;52.806;18.268;2023-02-18T06:29:33;14.57;;;2.10;;
55497;SDS011;41357;52.806;18.268;2023-02-18T06:32:00;5.70;;;1.50;;
55497;SDS011;41357;52.806;18.268;2023-02-18T06:34:27;3.88;;;0.90;;
55497;SDS011;41357;52.806;18.268;2023-02-18T06:36:53;6.85;;;1.98;;
55497;SDS011;41357;52.806;18.268;2023-02-18T06:39:19;6.88;;;0.73;;
55497;SDS011;41357;52.806;18.268;2023-02-18T06:41:45;12.70;;;1.95;;
55497;SDS011;41357;52.806;18.268;2023-02-18T06:44:11;12.48;;;2.78;;
55497;SDS011;41357;52.806;18.268;2023-02-18T06:46:39;6.88;;;1.42;;
55497;SDS011;41357;52.806;18.268;2023-02-18T06:49:05;10.43;;;1.33;;
55497;SDS011;41357;52.806;18.268;2023-02-18T06:51:31;10.27;;;1.88;;
55497;SDS011;41357;52.806;18.268;2023-02-18T06:53:57;10.15;;;1.88;;
55497;SDS011;41357;52.806;18.268;2023-02-18T06:56:23;3.88;;;1.23;;
55497;SDS011;41357;52.806;18.268;2023-02-18T06:58:49;11.30;;;2.25;;
55497;SDS011;41357;52.806;18.268;2023-02-18T07:01:15;11.27;;;1.80;;
55497;SDS011;41357;52.806;18.268;2023-02-18T07:03:41;9.85;;;1.13;;
55497;SDS011;41357;52.806;18.268;2023-02-18T07:06:08;8.25;;;2.25;;
55497;SDS011;41357;52.806;18.268;2023-02-18T07:08:34;7.32;;;1.63;;
55497;SDS011;41357;52.806;18.268;2023-02-18T07:11:01;6.63;;;1.30;;
55497;SDS011;41357;52.806;18.268;2023-02-18T07:13:27;6.82;;;0.98;;
55497;SDS011;41357;52.806;18.268;2023-02-18T07:15:53;14.05;;;2.50;;
55497;SDS011;41357;52.806;18.268;2023-02-18T07:18:20;32.63;;;2.70;;
55497;SDS011;41357;52.806;18.268;2023-02-18T07:20:46;9.73;;;1.55;;
55497;SDS011;41357;52.806;18.268;2023-02-18T07:23:12;3.92;;;1.52;;
55497;SDS011;41357;52.806;18.268;2023-02-18T07:25:38;13.30;;;1.52;;
55497;SDS011;41357;52.806;18.268;2023-02-18T07:28:04;6.47;;;1.42;;
55497;SDS011;41357;52.806;18.268;2023-02-18T07:30:31;7.03;;;1.27;;
55497;SDS011;41357;52.806;18.268;2023-02-18T07:32:57;9.25;;;1.98;;
55497;SDS011;41357;52.806;18.268;2023-02-18T07:35:23;7.53;;;1.20;;
55497;SDS011;41357;52.806;18.268;2023-02-18T07:37:49;12.43;;;1.90;;
55497;SDS011;41357;52.806;18.268;2023-02-18T07:40:17;8.88;;;1.92;;
55497;SDS011;41357;52.806;18.268;2023-02-18T07:42:43;5.47;;;1.35;;
55497;SDS011;41357;52.806;18.268;2023-02-18T07:45:10;7.93;;;1.58;;
55497;SDS011;41357;52.806;18.268;2023-02-18T07:47:36;14.40;;;1.92;;
55497;SDS011;41357;52.806;18.268;2023-02-18T07:50:02;14.90;;;1.30;;
55497;SDS011;41357;52.806;18.268;2023-02-18T07:52:28;12.48;;;1.60;;
55497;SDS011;41357;52.806;18.268;2023-02-18T07:54:55;8.90;;;2.60;;
55497;SDS011;41357;52.806;18.268;2023-02-18T07:57:21;8.80;;;1.55;;
55497;SDS011;41357;52.806;18.268;2023-02-18T07:59:47;7.35;;;2.83;;
55497;SDS011;41357;52.806;18.268;2023-02-18T08:02:17;10.65;;;1.98;;
55497;SDS011;41357;52.806;18.268;2023-02-18T08:04:44;9.57;;;1.48;;
55497;SDS011;41357;52.806;18.268;2023-02-18T08:07:13;7.30;;;2.08;;
55497;SDS011;41357;52.806;18.268;2023-02-18T08:09:39;7.28;;;1.90;;
55497;SDS011;41357;52.806;18.268;2023-02-18T08:12:06;14.35;;;3.00;;
55497;SDS011;41357;52.806;18.268;2023-02-18T08:14:33;15.02;;;2.78;;
55497;SDS011;41357;52.806;18.268;2023-02-18T08:16:59;14.85;;;2.53;;
55497;SDS011;41357;52.806;18.268;2023-02-18T08:19:25;11.27;;;3.53;;
55497;SDS011;41357;52.806;18.268;2023-02-18T08:21:51;10.23;;;2.65;;
55497;SDS011;41357;52.806;18.268;2023-02-18T08:24:17;11.40;;;2.13;;
55497;SDS011;41357;52.806;18.268;2023-02-18T08:26:43;12.82;;;2.20;;
55497;SDS011;41357;52.806;18.268;2023-02-18T08:29:09;19.27;;;2.67;;
55497;SDS011;41357;52.806;18.268;2023-02-18T08:31:35;10.98;;;2.83;;
55497;SDS011;41357;52.806;18.268;2023-02-18T08:34:02;6.38;;;2.17;;
55497;SDS011;41357;52.806;18.268;2023-02-18T08:36:28;12.32;;;2.92;;
55497;SDS011;41357;52.806;18.268;2023-02-18T08:38:54;13.65;;;3.05;;
55497;SDS011;41357;52.806;18.268;2023-02-18T08:41:21;11.18;;;3.53;;
55497;SDS011;41357;52.806;18.268;2023-02-18T08:43:47;10.10;;;2.45;;
55497;SDS011;41357;52.806;18.268;2023-02-18T08:46:13;8.90;;;2.25;;
55497;SDS011;41357;52.806;18.268;2023-02-18T08:48:40;14.57;;;2.50;;
55497;SDS011;41357;52.806;18.268;2023-02-18T08:51:16;10.57;;;2.00;;
55497;SDS011;41357;52.806;18.268;2023-02-18T08:53:43;8.88;;;1.75;;
55497;SDS011;41357;52.806;18.268;2023-02-18T08:56:10;6.32;;;1.42;;
55497;SDS011;41357;52.806;18.268;2023-02-18T08:58:37;12.70;;;3.08;;
55497;SDS011;41357;52.806;18.268;2023-02-18T09:01:04;8.93;;;1.67;;
55497;SDS011;41357;52.806;18.268;2023-02-18T09:03:31;8.57;;;1.70;;
55497;SDS011;41357;52.806;18.268;2023-02-18T09:05:57;9.45;;;2.20;;
55497;SDS011;41357;52.806;18.268;2023-02-18T09:08:24;11.85;;;2.42;;
55497;SDS011;41357;52.806;18.268;2023-02-18T09:10:53;16.35;;;1.88;;
55497;SDS011;41357;52.806;18.268;2023-02-18T09:13:20;11.57;;;1.85;;
55497;SDS011;41357;52.806;18.268;2023-02-18T09:15:54;7.72;;;1.77;;
55497;SDS011;41357;52.806;18.268;2023-02-18T09:18:20;12.55;;;2.60;;
55497;SDS011;41357;52.806;18.268;2023-02-18T09:20:46;24.83;;;2.75;;
55497;SDS011;41357;52.806;18.268;2023-02-18T09:23:12;6.57;;;1.92;;
55497;SDS011;41357;52.806;18.268;2023-02-18T09:25:39;10.95;;;2.17;;
55497;SDS011;41357;52.806;18.268;2023-02-18T09:28:05;9.32;;;2.50;;
55497;SDS011;41357;52.806;18.268;2023-02-18T09:30:31;9.77;;;2.00;;
55497;SDS011;41357;52.806;18.268;2023-02-18T09:32:58;8.98;;;1.73;;
55497;SDS011;41357;52.806;18.268;2023-02-18T09:35:24;6.40;;;1.40;;
55497;SDS011;41357;52.806;18.268;2023-02-18T09:37:50;14.20;;;2.53;;
55497;SDS011;41357;52.806;18.268;2023-02-18T09:40:29;13.05;;;2.40;;
55497;SDS011;41357;52.806;18.268;2023-02-18T09:42:57;12.13;;;2.65;;
55497;SDS011;41357;52.806;18.268;2023-02-18T09:45:23;11.73;;;2.42;;
55497;SDS011;41357;52.806;18.268;2023-02-18T09:47:50;8.55;;;2.05;;
55497;SDS011;41357;52.806;18.268;2023-02-18T09:50:26;15.75;;;3.08;;
55497;SDS011;41357;52.806;18.268;2023-02-18T09:52:53;20.35;;;3.10;;
55497;SDS011;41357;52.806;18.268;2023-02-18T09:57:47;13.95;;;2.75;;
55497;SDS011;41357;52.806;18.268;2023-02-18T10:00:24;12.68;;;2.13;;
55497;SDS011;41357;52.806;18.268;2023-02-18T10:05:18;9.57;;;2.38;;
55497;SDS011;41357;52.806;18.268;2023-02-18T10:07:44;15.73;;;2.60;;
55497;SDS011;41357;52.806;18.268;2023-02-18T10:10:28;13.02;;;3.95;;
55497;SDS011;41357;52.806;18.268;2023-02-18T10:12:56;7.80;;;2.22;;
55497;SDS011;41357;52.806;18.268;2023-02-18T10:15:23;18.10;;;2.92;;
55497;SDS011;41357;52.806;18.268;2023-02-18T10:17:52;11.90;;;2.75;;
55497;SDS011;41357;52.806;18.268;2023-02-18T10:20:21;10.23;;;1.33;;
55497;SDS011;41357;52.806;18.268;2023-02-18T10:22:48;9.70;;;2.30;;
55497;SDS011;41357;52.806;18.268;2023-02-18T10:25:18;13.75;;;2.92;;
55497;SDS011;41357;52.806;18.268;2023-02-18T10:27:45;10.23;;;2.72;;
55497;SDS011;41357;52.806;18.268;2023-02-18T10:32:44;6.25;;;1.90;;
55497;SDS011;41357;52.806;18.268;2023-02-18T10:35:15;9.23;;;2.53;;
55497;SDS011;41357;52.806;18.268;2023-02-18T10:40:30;9.35;;;1.80;;
55497;SDS011;41357;52.806;18.268;2023-02-18T10:45:47;6.07;;;1.83;;
55497;SDS011;41357;52.806;18.268;2023-02-18T10:48:22;12.70;;;1.58;;
55497;SDS011;41357;52.806;18.268;2023-02-18T10:50:50;10.52;;;1.63;;
55497;SDS011;41357;52.806;18.268;2023-02-18T10:55:49;10.05;;;1.90;;
55497;SDS011;41357;52.806;18.268;2023-02-18T11:00:50;9.13;;;1.50;;
55497;SDS011;41357;52.806;18.268;2023-02-18T11:03:18;10.95;;;2.45;;
55497;SDS011;41357;52.806;18.268;2023-02-18T11:05:45;8.65;;;1.85;;
55497;SDS011;41357;52.806;18.268;2023-02-18T11:08:18;10.38;;;1.75;;
55497;SDS011;41357;52.806;18.268;2023-02-18T11:10:46;14.65;;;1.90;;
55497;SDS011;41357;52.806;18.268;2023-02-18T11:13:17;8.02;;;1.55;;
55497;SDS011;41357;52.806;18.268;2023-02-18T11:16:01;8.30;;;1.55;;
55497;SDS011;41357;52.806;18.268;2023-02-18T11:18:38;13.13;;;2.03;;
55497;SDS011;41357;52.806;18.268;2023-02-18T11:21:49;9.52;;;1.55;;
55497;SDS011;41357;52.806;18.268;2023-02-18T11:23:51;9.68;;;2.35;;
55497;SDS011;41357;52.806;18.268;2023-02-18T11:26:25;8.27;;;2.30;;
55497;SDS011;41357;52.806;18.268;2023-02-18T11:28:55;12.93;;;2.88;;
55497;SDS011;41357;52.806;18.268;2023-02-18T11:31:24;9.30;;;2.37;;
55497;SDS011;41357;52.806;18.268;2023-02-18T11:33:51;7.72;;;1.60;;
55497;SDS011;41357;52.806;18.268;2023-02-18T11:38:50;11.15;;;1.83;;
55497;SDS011;41357;52.806;18.268;2023-02-18T11:41:36;9.82;;;1.90;;
55497;SDS011;41357;52.806;18.268;2023-02-18T11:44:03;10.02;;;1.92;;
55497;SDS011;41357;52.806;18.268;2023-02-18T11:46:30;18.30;;;2.15;;
55497;SDS011;41357;52.806;18.268;2023-02-18T11:49:01;6.72;;;1.67;;
55497;SDS011;41357;52.806;18.268;2023-02-18T11:51:35;8.65;;;1.58;;
55497;SDS011;41357;52.806;18.268;2023-02-18T11:54:09;12.52;;;1.92;;
55497;SDS011;41357;52.806;18.268;2023-02-18T11:56:53;8.73;;;1.75;;
55497;SDS011;41357;52.806;18.268;2023-02-18T11:59:20;10.48;;;2.25;;
55497;SDS011;41357;52.806;18.268;2023-02-18T12:01:50;8.60;;;1.95;;
55497;SDS011;41357;52.806;18.268;2023-02-18T12:04:18;9.15;;;2.35;;
55497;SDS011;41357;52.806;18.268;2023-02-18T12:09:35;7.10;;;1.90;;
55497;SDS011;41357;52.806;18.268;2023-02-18T12:12:04;10.75;;;2.78;;
55497;SDS011;41357;52.806;18.268;2023-02-18T12:14:30;7.35;;;1.92;;
55497;SDS011;41357;52.806;18.268;2023-02-18T12:19:50;8.75;;;1.85;;
55497;SDS011;41357;52.806;18.268;2023-02-18T12:30:34;14.88;;;2.17;;
55497;SDS011;41357;52.806;18.268;2023-02-18T12:37:59;7.22;;;1.70;;
55497;SDS011;41357;52.806;18.268;2023-02-18T12:48:37;13.15;;;2.13;;
55497;SDS011;41357;52.806;18.268;2023-02-18T12:56:56;13.20;;;2.47;;
55497;SDS011;41357;52.806;18.268;2023-02-18T12:59:35;10.30;;;2.10;;
55497;SDS011;41357;52.806;18.268;2023-02-18T13:09:55;14.52;;;2.20;;
55497;SDS011;41357;52.806;18.268;2023-02-18T13:17:40;17.20;;;3.67;;
55497;SDS011;41357;52.806;18.268;2023-02-18T13:22:39;14.93;;;4.20;;
55497;SDS011;41357;52.806;18.268;2023-02-18T13:25:05;23.15;;;9.07;;
55497;SDS011;41357;52.806;18.268;2023-02-18T13:27:53;23.35;;;6.70;;
55497;SDS011;41357;52.806;18.268;2023-02-18T13:31:12;19.67;;;6.28;;
55497;SDS011;41357;52.806;18.268;2023-02-18T13:33:28;19.77;;;6.43;;
55497;SDS011;41357;52.806;18.268;2023-02-18T13:35:59;22.40;;;6.45;;
55497;SDS011;41357;52.806;18.268;2023-02-18T13:41:15;7.82;;;2.80;;
55497;SDS011;41357;52.806;18.268;2023-02-18T13:43:41;8.48;;;1.90;;
55497;SDS011;41357;52.806;18.268;2023-02-18T13:46:12;4.78;;;1.20;;
55497;SDS011;41357;52.806;18.268;2023-02-18T13:51:08;4.60;;;1.20;;
55497;SDS011;41357;52.806;18.268;2023-02-18T13:53:36;3.53;;;1.10;;
55497;SDS011;41357;52.806;18.268;2023-02-18T13:56:03;6.07;;;2.28;;
55497;SDS011;41357;52.806;18.268;2023-02-18T13:58:31;3.45;;;1.17;;
55497;SDS011;41357;52.806;18.268;2023-02-18T14:03:34;4.05;;;1.35;;
55497;SDS011;41357;52.806;18.268;2023-02-18T14:06:11;3.80;;;1.10;;
55497;SDS011;41357;52.806;18.268;2023-02-18T14:08:38;4.55;;;1.92;;
55497;SDS011;41357;52.806;18.268;2023-02-18T14:13:38;10.63;;;2.70;;
55497;SDS011;41357;52.806;18.268;2023-02-18T14:16:05;8.88;;;2.20;;
55497;SDS011;41357;52.806;18.268;2023-02-18T14:31:05;8.38;;;2.25;;
55497;SDS011;41357;52.806;18.268;2023-02-18T14:33:31;6.22;;;1.67;;
55497;SDS011;41357;52.806;18.268;2023-02-18T14:49:04;11.82;;;3.00;;
55497;SDS011;41357;52.806;18.268;2023-02-18T14:51:34;11.65;;;2.95;;
55497;SDS011;41357;52.806;18.268;2023-02-18T14:54:04;13.57;;;4.28;;
55497;SDS011;41357;52.806;18.268;2023-02-18T14:56:31;11.55;;;3.05;;
55497;SDS011;41357;52.806;18.268;2023-02-18T14:58:58;3.67;;;1.40;;
55497;SDS011;41357;52.806;18.268;2023-02-18T15:01:30;12.20;;;3.75;;
55497;SDS011;41357;52.806;18.268;2023-02-18T15:03:56;9.25;;;2.00;;
55497;SDS011;41357;52.806;18.268;2023-02-18T15:06:24;4.53;;;1.73;;
55497;SDS011;41357;52.806;18.268;2023-02-18T15:08:50;9.45;;;2.50;;
55497;SDS011;41357;52.806;18.268;2023-02-18T15:11:16;11.93;;;2.80;;
55497;SDS011;41357;52.806;18.268;2023-02-18T15:13:44;9.50;;;2.25;;
55497;SDS011;41357;52.806;18.268;2023-02-18T15:16:25;7.40;;;2.50;;
55497;SDS011;41357;52.806;18.268;2023-02-18T15:18:54;9.27;;;2.95;;
55497;SDS011;41357;52.806;18.268;2023-02-18T15:21:41;9.93;;;2.55;;
55497;SDS011;41357;52.806;18.268;2023-02-18T15:24:10;9.48;;;2.28;;
55497;SDS011;41357;52.806;18.268;2023-02-18T15:26:40;4.97;;;2.05;;
55497;SDS011;41357;52.806;18.268;2023-02-18T15:29:14;6.82;;;1.42;;
55497;SDS011;41357;52.806;18.268;2023-02-18T15:31:40;5.13;;;1.73;;
55497;SDS011;41357;52.806;18.268;2023-02-18T15:36:51;8.07;;;2.45;;
55497;SDS011;41357;52.806;18.268;2023-02-18T15:39:18;10.50;;;2.53;;
55497;SDS011;41357;52.806;18.268;2023-02-18T15:41:44;17.67;;;4.95;;
55497;SDS011;41357;52.806;18.268;2023-02-18T15:44:21;27.10;;;7.95;;
55497;SDS011;41357;52.806;18.268;2023-02-18T15:46:49;33.00;;;8.43;;
55497;SDS011;41357;52.806;18.268;2023-02-18T15:49:18;15.35;;;4.78;;
55497;SDS011;41357;52.806;18.268;2023-02-18T15:51:44;18.83;;;6.05;;
55497;SDS011;41357;52.806;18.268;2023-02-18T15:54:15;42.00;;;15.48;;
55497;SDS011;41357;52.806;18.268;2023-02-18T15:56:42;46.97;;;14.63;;
55497;SDS011;41357;52.806;18.268;2023-02-18T16:04:39;17.88;;;7.15;;
55497;SDS011;41357;52.806;18.268;2023-02-18T16:07:20;18.70;;;6.97;;
55497;SDS011;41357;52.806;18.268;2023-02-18T16:09:46;17.00;;;6.90;;
55497;SDS011;41357;52.806;18.268;2023-02-18T16:12:18;15.77;;;7.28;;
55497;SDS011;41357;52.806;18.268;2023-02-18T16:14:47;12.27;;;6.35;;
55497;SDS011;41357;52.806;18.268;2023-02-18T16:17:17;14.15;;;7.38;;
55497;SDS011;41357;52.806;18.268;2023-02-18T16:19:49;15.52;;;4.97;;
55497;SDS011;41357;52.806;18.268;2023-02-18T16:22:30;13.88;;;5.57;;
55497;SDS011;41357;52.806;18.268;2023-02-18T16:24:59;12.05;;;6.15;;
55497;SDS011;41357;52.806;18.268;2023-02-18T16:27:33;15.35;;;5.20;;
55497;SDS011;41357;52.806;18.268;2023-02-18T16:30:01;8.48;;;4.50;;
55497;SDS011;41357;52.806;18.268;2023-02-18T16:32:28;17.73;;;5.72;;
55497;SDS011;41357;52.806;18.268;2023-02-18T16:34:55;15.98;;;5.28;;
55497;SDS011;41357;52.806;18.268;2023-02-18T16:37:21;17.08;;;6.05;;
55497;SDS011;41357;52.806;18.268;2023-02-18T16:40:13;17.92;;;5.32;;
55497;SDS011;41357;52.806;18.268;2023-02-18T16:42:46;16.92;;;5.97;;
55497;SDS011;41357;52.806;18.268;2023-02-18T16:45:12;12.00;;;4.05;;
55497;SDS011;41357;52.806;18.268;2023-02-18T16:47:38;10.63;;;4.25;;
55497;SDS011;41357;52.806;18.268;2023-02-18T16:50:05;7.82;;;2.83;;
55497;SDS011;41357;52.806;18.268;2023-02-18T16:52:31;13.90;;;4.55;;
55497;SDS011;41357;52.806;18.268;2023-02-18T16:54:57;10.70;;;3.40;;
55497;SDS011;41357;52.806;18.268;2023-02-18T16:57:23;9.98;;;3.85;;
55497;SDS011;41357;52.806;18.268;2023-02-18T16:59:49;9.90;;;2.92;;
55497;SDS011;41357;52.806;18.268;2023-02-18T17:02:17;13.23;;;4.05;;
55497;SDS011;41357;52.806;18.268;2023-02-18T17:04:43;10.38;;;4.15;;
55497;SDS011;41357;52.806;18.268;2023-02-18T17:07:10;12.02;;;3.97;;
55497;SDS011;41357;52.806;18.268;2023-02-18T17:09:36;7.25;;;3.10;;
55497;SDS011;41357;52.806;18.268;2023-02-18T17:12:02;8.13;;;3.75;;
55497;SDS011;41357;52.806;18.268;2023-02-18T17:14:29;9.13;;;3.20;;
55497;SDS011;41357;52.806;18.268;2023-02-18T17:16:55;7.70;;;3.58;;
55497;SDS011;41357;52.806;18.268;2023-02-18T17:19:22;17.80;;;6.38;;
55497;SDS011;41357;52.806;18.268;2023-02-18T17:21:48;6.80;;;3.17;;